sensor_id;sensor_type;location;lat;lon;timestamp;pressure;altitude;pressure_sealevel;temperature
53412;BMP280;39307;52.870;13.660;2023-06-10T00:01:33;101065.91;;;15.31
53412;BMP280;39307;52.870;13.660;2023-06-10T00:03:59;101063.09;;;15.26
53412;BMP280;39307;52.870;13.660;2023-06-10T00:06:25;101069.81;;;15.22
53412;BMP280;39307;52.870;13.660;2023-06-10T00:08:51;101060.06;;;15.23
53412;BMP280;39307;52.870;13.660;2023-06-10T00:11:17;101056.00;;;15.20
53412;BMP280;39307;52.870;13.660;2023-06-10T00:13:44;101071.03;;;15.20
53412;BMP280;39307;52.870;13.660;2023-06-10T00:16:10;101072.41;;;15.16
53412;BMP280;39307;52.870;13.660;2023-06-10T00:18:36;101064.91;;;15.13
53412;BMP280;39307;52.870;13.660;2023-06-10T00:21:02;101065.94;;;15.12
53412;BMP280;39307;52.870;13.660;2023-06-10T00:23:29;101055.00;;;15.15
53412;BMP280;39307;52.870;13.660;2023-06-10T00:25:55;101065.53;;;15.08
53412;BMP280;39307;52.870;13.660;2023-06-10T00:28:21;101059.84;;;15.05
53412;BMP280;39307;52.870;13.660;2023-06-10T00:30:48;101055.22;;;15.07
53412;BMP280;39307;52.870;13.660;2023-06-10T00:33:14;101054.34;;;15.06
53412;BMP280;39307;52.870;13.660;2023-06-10T00:35:40;101053.34;;;15.01
53412;BMP280;39307;52.870;13.660;2023-06-10T00:38:06;101054.97;;;14.96
53412;BMP280;39307;52.870;13.660;2023-06-10T00:40:39;101059.03;;;14.92
53412;BMP280;39307;52.870;13.660;2023-06-10T00:43:06;101065.50;;;14.89
53412;BMP280;39307;52.870;13.660;2023-06-10T00:45:33;101052.13;;;14.91
53412;BMP280;39307;52.870;13.660;2023-06-10T00:48:01;101052.13;;;14.91
53412;BMP280;39307;52.870;13.660;2023-06-10T00:50:27;101052.53;;;14.88
53412;BMP280;39307;52.870;13.660;2023-06-10T00:52:54;101059.00;;;14.85
53412;BMP280;39307;52.870;13.660;2023-06-10T00:55:21;101053.94;;;14.84
53412;BMP280;39307;52.870;13.660;2023-06-10T00:57:47;101048.06;;;14.88
53412;BMP280;39307;52.870;13.660;2023-06-10T01:00:14;101051.53;;;14.89
53412;BMP280;39307;52.870;13.660;2023-06-10T01:02:41;101045.22;;;14.83
53412;BMP280;39307;52.870;13.660;2023-06-10T01:05:08;101061.84;;;14.77
53412;BMP280;39307;52.870;13.660;2023-06-10T01:10:50;101059.41;;;14.76
53412;BMP280;39307;52.870;13.660;2023-06-10T01:13:17;101055.16;;;14.75
53412;BMP280;39307;52.870;13.660;2023-06-10T01:15:44;101065.88;;;14.67
53412;BMP280;39307;52.870;13.660;2023-06-10T01:18:11;101068.91;;;14.64
53412;BMP280;39307;52.870;13.660;2023-06-10T01:20:37;101057.97;;;14.61
53412;BMP280;39307;52.870;13.660;2023-06-10T01:23:04;101071.13;;;14.61
53412;BMP280;39307;52.870;13.660;2023-06-10T01:25:31;101068.72;;;14.59
53412;BMP280;39307;52.870;13.660;2023-06-10T01:33:35;101070.53;;;14.52
53412;BMP280;39307;52.870;13.660;2023-06-10T01:36:04;101070.94;;;14.56
53412;BMP280;39307;52.870;13.660;2023-06-10T01:38:34;101076.19;;;14.49
53412;BMP280;39307;52.870;13.660;2023-06-10T01:41:03;101075.97;;;14.44
53412;BMP280;39307;52.870;13.660;2023-06-10T01:43:34;101071.28;;;14.40
53412;BMP280;39307;52.870;13.660;2023-06-10T01:46:00;101075.16;;;14.38
53412;BMP280;39307;52.870;13.660;2023-06-10T01:48:27;101076.78;;;14.39
53412;BMP280;39307;52.870;13.660;2023-06-10T01:50:53;101086.69;;;14.37
53412;BMP280;39307;52.870;13.660;2023-06-10T01:53:20;101072.50;;;14.31
53412;BMP280;39307;52.870;13.660;2023-06-10T01:55:46;101078.97;;;14.29
53412;BMP280;39307;52.870;13.660;2023-06-10T01:58:12;101078.16;;;14.28
53412;BMP280;39307;52.870;13.660;2023-06-10T02:00:38;101076.94;;;14.31
53412;BMP280;39307;52.870;13.660;2023-06-10T02:03:05;101082.00;;;14.26
53412;BMP280;39307;52.870;13.660;2023-06-10T02:05:31;101074.88;;;14.20
53412;BMP280;39307;52.870;13.660;2023-06-10T02:07:57;101080.16;;;14.20
53412;BMP280;39307;52.870;13.660;2023-06-10T02:10:24;101080.34;;;14.18
53412;BMP280;39307;52.870;13.660;2023-06-10T02:12:50;101086.00;;;14.15
53412;BMP280;39307;52.870;13.660;2023-06-10T02:15:16;101086.00;;;14.15
53412;BMP280;39307;52.870;13.660;2023-06-10T02:17:42;101086.22;;;14.14
53412;BMP280;39307;52.870;13.660;2023-06-10T02:20:09;101089.84;;;14.13
53412;BMP280;39307;52.870;13.660;2023-06-10T02:22:35;101088.84;;;14.14
53412;BMP280;39307;52.870;13.660;2023-06-10T02:25:01;101093.91;;;14.15
53412;BMP280;39307;52.870;13.660;2023-06-10T02:27:28;101093.31;;;14.14
53412;BMP280;39307;52.870;13.660;2023-06-10T02:29:54;101086.38;;;14.13
53412;BMP280;39307;52.870;13.660;2023-06-10T02:32:20;101088.44;;;14.11
53412;BMP280;39307;52.870;13.660;2023-06-10T02:34:46;101084.16;;;14.10
53412;BMP280;39307;52.870;13.660;2023-06-10T02:37:12;101087.38;;;14.05
53412;BMP280;39307;52.870;13.660;2023-06-10T02:39:39;101082.28;;;14.04
53412;BMP280;39307;52.870;13.660;2023-06-10T02:42:05;101089.59;;;14.02
53412;BMP280;39307;52.870;13.660;2023-06-10T02:44:32;101087.34;;;13.99
53412;BMP280;39307;52.870;13.660;2023-06-10T02:46:58;101085.94;;;14.03
53412;BMP280;39307;52.870;13.660;2023-06-10T02:49:26;101086.38;;;14.06
53412;BMP280;39307;52.870;13.660;2023-06-10T02:51:52;101077.66;;;14.06
53412;BMP280;39307;52.870;13.660;2023-06-10T02:54:19;101089.00;;;14.06
53412;BMP280;39307;52.870;13.660;2023-06-10T02:56:45;101088.00;;;14.07
53412;BMP280;39307;52.870;13.660;2023-06-10T02:59:12;101086.38;;;14.06
53412;BMP280;39307;52.870;13.660;2023-06-10T03:01:38;101083.94;;;14.05
53412;BMP280;39307;52.870;13.660;2023-06-10T03:04:06;101090.41;;;14.02
53412;BMP280;39307;52.870;13.660;2023-06-10T03:06:33;101079.88;;;14.02
53412;BMP280;39307;52.870;13.660;2023-06-10T03:09:03;101083.13;;;14.04
53412;BMP280;39307;52.870;13.660;2023-06-10T03:11:30;101091.22;;;14.03
53412;BMP280;39307;52.870;13.660;2023-06-10T03:13:57;101087.38;;;14.05
53412;BMP280;39307;52.870;13.660;2023-06-10T03:16:23;101092.81;;;14.04
53412;BMP280;39307;52.870;13.660;2023-06-10T03:18:49;101091.84;;;14.05
53412;BMP280;39307;52.870;13.660;2023-06-10T03:21:15;101092.88;;;14.10
53412;BMP280;39307;52.870;13.660;2023-06-10T03:23:42;101091.22;;;14.09
53412;BMP280;39307;52.870;13.660;2023-06-10T03:26:08;101090.25;;;14.10
53412;BMP280;39307;52.870;13.660;2023-06-10T03:28:34;101090.25;;;14.10
53412;BMP280;39307;52.870;13.660;2023-06-10T03:31:00;101089.41;;;14.10
53412;BMP280;39307;52.870;13.660;2023-06-10T03:33:26;101092.44;;;14.07
53412;BMP280;39307;52.870;13.660;2023-06-10T03:35:53;101090.44;;;14.09
53412;BMP280;39307;52.870;13.660;2023-06-10T03:38:19;101096.13;;;14.12
53412;BMP280;39307;52.870;13.660;2023-06-10T03:40:45;101092.28;;;14.14
53412;BMP280;39307;52.870;13.660;2023-06-10T03:43:12;101098.97;;;14.17
53412;BMP280;39307;52.870;13.660;2023-06-10T03:45:38;101093.91;;;14.22
53412;BMP280;39307;52.870;13.660;2023-06-10T03:48:05;101097.97;;;14.24
53412;BMP280;39307;52.870;13.660;2023-06-10T03:50:32;101092.31;;;14.27
53412;BMP280;39307;52.870;13.660;2023-06-10T03:53:00;101096.59;;;14.28
53412;BMP280;39307;52.870;13.660;2023-06-10T03:55:27;101091.75;;;14.32
53412;BMP280;39307;52.870;13.660;2023-06-10T03:57:53;101101.25;;;14.33
53412;BMP280;39307;52.870;13.660;2023-06-10T04:00:20;101096.63;;;14.35
53412;BMP280;39307;52.870;13.660;2023-06-10T04:02:46;101104.94;;;14.38
53412;BMP280;39307;52.870;13.660;2023-06-10T04:05:13;101096.81;;;14.40
53412;BMP280;39307;52.870;13.660;2023-06-10T04:07:39;101098.47;;;14.41
53412;BMP280;39307;52.870;13.660;2023-06-10T04:10:06;101104.16;;;14.44
53412;BMP280;39307;52.870;13.660;2023-06-10T04:12:32;101106.16;;;14.48
53412;BMP280;39307;52.870;13.660;2023-06-10T04:14:59;101111.03;;;14.51
53412;BMP280;39307;52.870;13.660;2023-06-10T04:17:25;101106.41;;;14.53
53412;BMP280;39307;52.870;13.660;2023-06-10T04:19:51;101109.66;;;14.55
53412;BMP280;39307;52.870;13.660;2023-06-10T04:22:18;101112.50;;;14.60
53412;BMP280;39307;52.870;13.660;2023-06-10T04:24:44;101115.34;;;14.65
53412;BMP280;39307;52.870;13.660;2023-06-10T04:27:10;101117.59;;;14.68
53412;BMP280;39307;52.870;13.660;2023-06-10T04:29:37;101111.72;;;14.79
53412;BMP280;39307;52.870;13.660;2023-06-10T04:32:03;101120.66;;;14.84
53412;BMP280;39307;52.870;13.660;2023-06-10T04:34:29;101119.03;;;14.90
53412;BMP280;39307;52.870;13.660;2023-06-10T04:36:56;101116.59;;;14.95
53412;BMP280;39307;52.870;13.660;2023-06-10T04:39:22;101117.63;;;15.00
53412;BMP280;39307;52.870;13.660;2023-06-10T04:41:48;101116.00;;;15.05
53412;BMP280;39307;52.870;13.660;2023-06-10T04:44:14;101117.06;;;15.11
53412;BMP280;39307;52.870;13.660;2023-06-10T04:46:41;101120.09;;;15.14
53412;BMP280;39307;52.870;13.660;2023-06-10T04:49:07;101127.41;;;15.19
53412;BMP280;39307;52.870;13.660;2023-06-10T04:51:34;101127.22;;;15.20
53412;BMP280;39307;52.870;13.660;2023-06-10T04:54:00;101120.50;;;15.24
53412;BMP280;39307;52.870;13.660;2023-06-10T04:56:26;101123.56;;;15.28
53412;BMP280;39307;52.870;13.660;2023-06-10T04:58:52;101119.50;;;15.31
53412;BMP280;39307;52.870;13.660;2023-06-10T05:01:18;101123.97;;;15.37
53412;BMP280;39307;52.870;13.660;2023-06-10T05:03:45;101123.97;;;15.44
53412;BMP280;39307;52.870;13.660;2023-06-10T05:06:11;101128.44;;;15.50
53412;BMP280;39307;52.870;13.660;2023-06-10T05:08:37;101127.81;;;15.54
53412;BMP280;39307;52.870;13.660;2023-06-10T05:11:03;101127.78;;;15.60
53412;BMP280;39307;52.870;13.660;2023-06-10T05:13:30;101137.13;;;15.69
53412;BMP280;39307;52.870;13.660;2023-06-10T05:15:56;101138.94;;;15.69
53412;BMP280;39307;52.870;13.660;2023-06-10T05:18:22;101144.00;;;15.70
53412;BMP280;39307;52.870;13.660;2023-06-10T05:20:48;101141.38;;;15.77
53412;BMP280;39307;52.870;13.660;2023-06-10T05:23:15;101142.78;;;15.79
53412;BMP280;39307;52.870;13.660;2023-06-10T05:25:41;101148.69;;;15.81
53412;BMP280;39307;52.870;13.660;2023-06-10T05:28:07;101145.22;;;15.87
53412;BMP280;39307;52.870;13.660;2023-06-10T05:30:34;101143.38;;;15.94
53412;BMP280;39307;52.870;13.660;2023-06-10T05:33:00;101142.53;;;16.00
53412;BMP280;39307;52.870;13.660;2023-06-10T05:35:26;101146.78;;;16.01
53412;BMP280;39307;52.870;13.660;2023-06-10T05:37:52;101148.22;;;16.03
53412;BMP280;39307;52.870;13.660;2023-06-10T05:40:19;101142.09;;;16.09
53412;BMP280;39307;52.870;13.660;2023-06-10T05:42:45;101151.28;;;16.13
53412;BMP280;39307;52.870;13.660;2023-06-10T05:45:11;101149.22;;;16.15
53412;BMP280;39307;52.870;13.660;2023-06-10T05:47:37;101151.69;;;16.17
53412;BMP280;39307;52.870;13.660;2023-06-10T05:50:04;101149.81;;;16.23
53412;BMP280;39307;52.870;13.660;2023-06-10T05:52:30;101150.81;;;16.29
53412;BMP280;39307;52.870;13.660;2023-06-10T05:54:56;101162.34;;;16.41
53412;BMP280;39307;52.870;13.660;2023-06-10T05:57:23;101163.75;;;16.43
53412;BMP280;39307;52.870;13.660;2023-06-10T05:59:49;101159.69;;;16.47
53412;BMP280;39307;52.870;13.660;2023-06-10T06:02:15;101153.97;;;16.50
53412;BMP280;39307;52.870;13.660;2023-06-10T06:04:41;101153.56;;;16.53
53412;BMP280;39307;52.870;13.660;2023-06-10T06:07:08;101161.47;;;16.59
53412;BMP280;39307;52.870;13.660;2023-06-10T06:09:34;101155.09;;;16.67
53412;BMP280;39307;52.870;13.660;2023-06-10T06:12:00;101148.81;;;16.68
53412;BMP280;39307;52.870;13.660;2023-06-10T06:14:30;101161.38;;;16.72
53412;BMP280;39307;52.870;13.660;2023-06-10T06:16:57;101163.19;;;16.78
53412;BMP280;39307;52.870;13.660;2023-06-10T06:19:23;101163.78;;;16.80
53412;BMP280;39307;52.870;13.660;2023-06-10T06:21:49;101167.41;;;16.85
53412;BMP280;39307;52.870;13.660;2023-06-10T06:24:16;101164.94;;;16.90
53412;BMP280;39307;52.870;13.660;2023-06-10T06:26:42;101166.13;;;16.94
53412;BMP280;39307;52.870;13.660;2023-06-10T06:29:08;101168.53;;;17.02
53412;BMP280;39307;52.870;13.660;2023-06-10T06:31:34;101171.00;;;17.28
53412;BMP280;39307;52.870;13.660;2023-06-10T06:34:01;101166.75;;;17.27
53412;BMP280;39307;52.870;13.660;2023-06-10T06:36:27;101179.75;;;17.28
53412;BMP280;39307;52.870;13.660;2023-06-10T06:38:53;101180.75;;;17.33
53412;BMP280;39307;52.870;13.660;2023-06-10T06:41:20;101187.78;;;17.46
53412;BMP280;39307;52.870;13.660;2023-06-10T06:43:46;101183.69;;;17.50
53412;BMP280;39307;52.870;13.660;2023-06-10T06:46:13;101177.56;;;17.49
53412;BMP280;39307;52.870;13.660;2023-06-10T06:48:39;101193.44;;;17.49
53412;BMP280;39307;52.870;13.660;2023-06-10T06:51:06;101185.91;;;17.53
53412;BMP280;39307;52.870;13.660;2023-06-10T06:53:32;101189.34;;;17.53
53412;BMP280;39307;52.870;13.660;2023-06-10T06:55:58;101189.94;;;17.55
53412;BMP280;39307;52.870;13.660;2023-06-10T06:58:24;101200.31;;;17.57
53412;BMP280;39307;52.870;13.660;2023-06-10T07:00:50;101200.25;;;17.63
53412;BMP280;39307;52.870;13.660;2023-06-10T07:03:17;101201.28;;;17.62
53412;BMP280;39307;52.870;13.660;2023-06-10T07:05:43;101211.66;;;17.63
53412;BMP280;39307;52.870;13.660;2023-06-10T07:08:09;101204.53;;;17.64
53412;BMP280;39307;52.870;13.660;2023-06-10T07:10:35;101216.53;;;17.66
53412;BMP280;39307;52.870;13.660;2023-06-10T07:13:02;101218.56;;;17.64
53412;BMP280;39307;52.870;13.660;2023-06-10T07:15:28;101218.00;;;17.63
53412;BMP280;39307;52.870;13.660;2023-06-10T07:17:55;101219.41;;;17.65
53412;BMP280;39307;52.870;13.660;2023-06-10T07:20:21;101215.72;;;17.66
53412;BMP280;39307;52.870;13.660;2023-06-10T07:22:47;101213.00;;;17.72
53412;BMP280;39307;52.870;13.660;2023-06-10T07:25:13;101227.28;;;17.71
53412;BMP280;39307;52.870;13.660;2023-06-10T07:27:40;101229.31;;;17.69
53412;BMP280;39307;52.870;13.660;2023-06-10T07:30:06;101227.13;;;17.66
53412;BMP280;39307;52.870;13.660;2023-06-10T07:32:33;101233.22;;;17.67
53412;BMP280;39307;52.870;13.660;2023-06-10T07:34:59;101239.53;;;17.66
53412;BMP280;39307;52.870;13.660;2023-06-10T07:37:25;101235.91;;;17.61
53412;BMP280;39307;52.870;13.660;2023-06-10T07:39:52;101234.50;;;17.58
53412;BMP280;39307;52.870;13.660;2023-06-10T07:42:18;101237.56;;;17.55
53412;BMP280;39307;52.870;13.660;2023-06-10T07:44:44;101234.94;;;17.55
53412;BMP280;39307;52.870;13.660;2023-06-10T07:47:10;101235.97;;;17.54
53412;BMP280;39307;52.870;13.660;2023-06-10T07:49:36;101237.00;;;17.53
53412;BMP280;39307;52.870;13.660;2023-06-10T07:52:03;101236.56;;;17.56
53412;BMP280;39307;52.870;13.660;2023-06-10T07:54:29;101235.38;;;17.52
53412;BMP280;39307;52.870;13.660;2023-06-10T07:56:55;101238.00;;;17.52
53412;BMP280;39307;52.870;13.660;2023-06-10T07:59:22;101231.72;;;17.53
53412;BMP280;39307;52.870;13.660;2023-06-10T08:01:48;101231.28;;;17.56
53412;BMP280;39307;52.870;13.660;2023-06-10T08:04:14;101238.25;;;17.51
53412;BMP280;39307;52.870;13.660;2023-06-10T08:06:40;101241.09;;;17.49
53412;BMP280;39307;52.870;13.660;2023-06-10T08:09:06;101242.13;;;17.48
53412;BMP280;39307;52.870;13.660;2023-06-10T08:11:33;101247.84;;;17.45
53412;BMP280;39307;52.870;13.660;2023-06-10T08:13:59;101242.34;;;17.47
53412;BMP280;39307;52.870;13.660;2023-06-10T08:16:25;101248.50;;;17.41
53412;BMP280;39307;52.870;13.660;2023-06-10T08:18:51;101244.63;;;17.37
53412;BMP280;39307;52.870;13.660;2023-06-10T08:21:18;101246.06;;;17.39
53412;BMP280;39307;52.870;13.660;2023-06-10T08:23:44;101250.91;;;17.42
53412;BMP280;39307;52.870;13.660;2023-06-10T08:26:10;101249.91;;;17.43
53412;BMP280;39307;52.870;13.660;2023-06-10T08:28:37;101245.63;;;17.42
53412;BMP280;39307;52.870;13.660;2023-06-10T08:31:03;101248.66;;;17.46
53412;BMP280;39307;52.870;13.660;2023-06-10T08:33:29;101248.84;;;17.51
53412;BMP280;39307;52.870;13.660;2023-06-10T08:35:55;101256.78;;;17.51
53412;BMP280;39307;52.870;13.660;2023-06-10T08:38:22;101261.25;;;17.50
53412;BMP280;39307;52.870;13.660;2023-06-10T08:40:48;101262.69;;;17.53
53412;BMP280;39307;52.870;13.660;2023-06-10T08:43:26;101257.75;;;17.56
53412;BMP280;39307;52.870;13.660;2023-06-10T08:46:00;101264.66;;;17.57
53412;BMP280;39307;52.870;13.660;2023-06-10T08:48:30;101266.28;;;17.58
53412;BMP280;39307;52.870;13.660;2023-06-10T08:50:57;101264.66;;;17.57
53412;BMP280;39307;52.870;13.660;2023-06-10T08:53:24;101266.88;;;17.60
53412;BMP280;39307;52.870;13.660;2023-06-10T08:55:52;101254.03;;;17.63
53412;BMP280;39307;52.870;13.660;2023-06-10T08:58:20;101253.53;;;17.73
53412;BMP280;39307;52.870;13.660;2023-06-10T09:00:46;101245.72;;;17.84
53412;BMP280;39307;52.870;13.660;2023-06-10T09:03:13;101243.16;;;17.95
53412;BMP280;39307;52.870;13.660;2023-06-10T09:05:39;101248.81;;;18.05
53412;BMP280;39307;52.870;13.660;2023-06-10T09:08:07;101245.88;;;18.13
53412;BMP280;39307;52.870;13.660;2023-06-10T09:10:33;101239.25;;;18.22
53412;BMP280;39307;52.870;13.660;2023-06-10T09:13:00;101251.78;;;18.33
53412;BMP280;39307;52.870;13.660;2023-06-10T09:15:26;101249.22;;;18.44
53412;BMP280;39307;52.870;13.660;2023-06-10T09:17:53;101252.16;;;18.54
53412;BMP280;39307;52.870;13.660;2023-06-10T09:20:19;101250.03;;;18.62
53412;BMP280;39307;52.870;13.660;2023-06-10T09:22:45;101256.06;;;18.69
53412;BMP280;39307;52.870;13.660;2023-06-10T09:25:12;101255.69;;;18.83
53412;BMP280;39307;52.870;13.660;2023-06-10T09:27:52;101252.91;;;18.96
53412;BMP280;39307;52.870;13.660;2023-06-10T09:30:30;101241.06;;;19.10
53412;BMP280;39307;52.870;13.660;2023-06-10T09:32:59;101245.16;;;19.24
53412;BMP280;39307;52.870;13.660;2023-06-10T09:35:26;101250.16;;;19.32
53412;BMP280;39307;52.870;13.660;2023-06-10T09:37:54;101242.56;;;19.35
53412;BMP280;39307;52.870;13.660;2023-06-10T09:40:22;101245.44;;;19.45
53412;BMP280;39307;52.870;13.660;2023-06-10T09:42:54;101245.25;;;19.58
53412;BMP280;39307;52.870;13.660;2023-06-10T09:45:21;101244.00;;;19.71
53412;BMP280;39307;52.870;13.660;2023-06-10T09:47:51;101247.97;;;19.92
53412;BMP280;39307;52.870;13.660;2023-06-10T09:50:18;101234.25;;;20.17
53412;BMP280;39307;52.870;13.660;2023-06-10T09:52:46;101234.06;;;20.46
53412;BMP280;39307;52.870;13.660;2023-06-10T09:55:12;101226.59;;;20.82
53412;BMP280;39307;52.870;13.660;2023-06-10T09:57:39;101233.09;;;21.13
53412;BMP280;39307;52.870;13.660;2023-06-10T10:00:06;101224.94;;;21.47
53412;BMP280;39307;52.870;13.660;2023-06-10T10:02:33;101225.44;;;21.93
53412;BMP280;39307;52.870;13.660;2023-06-10T10:05:09;101226.63;;;22.18
53412;BMP280;39307;52.870;13.660;2023-06-10T10:07:36;101238.53;;;22.48
53412;BMP280;39307;52.870;13.660;2023-06-10T10:10:02;101236.84;;;22.63
53412;BMP280;39307;52.870;13.660;2023-06-10T10:12:28;101237.03;;;22.57
53412;BMP280;39307;52.870;13.660;2023-06-10T10:14:56;101237.53;;;22.54
53412;BMP280;39307;52.870;13.660;2023-06-10T10:17:25;101239.31;;;22.49
53412;BMP280;39307;52.870;13.660;2023-06-10T10:20:00;101231.00;;;22.45
53412;BMP280;39307;52.870;13.660;2023-06-10T10:22:37;101233.06;;;22.38
53412;BMP280;39307;52.870;13.660;2023-06-10T10:25:13;101233.38;;;22.42
53412;BMP280;39307;52.870;13.660;2023-06-10T10:27:48;101229.44;;;22.49
53412;BMP280;39307;52.870;13.660;2023-06-10T10:30:17;101233.31;;;22.58
53412;BMP280;39307;52.870;13.660;2023-06-10T10:33:10;101223.09;;;22.71
53412;BMP280;39307;52.870;13.660;2023-06-10T10:35:39;101221.22;;;22.72
53412;BMP280;39307;52.870;13.660;2023-06-10T10:38:07;101224.94;;;22.92
53412;BMP280;39307;52.870;13.660;2023-06-10T10:40:34;101216.81;;;23.29
53412;BMP280;39307;52.870;13.660;2023-06-10T10:43:01;101219.13;;;23.78
53412;BMP280;39307;52.870;13.660;2023-06-10T10:45:28;101210.25;;;24.13
53412;BMP280;39307;52.870;13.660;2023-06-10T10:47:55;101206.13;;;24.37
53412;BMP280;39307;52.870;13.660;2023-06-10T10:50:21;101209.13;;;24.45
53412;BMP280;39307;52.870;13.660;2023-06-10T10:52:56;101205.66;;;24.50
53412;BMP280;39307;52.870;13.660;2023-06-10T10:55:23;101193.13;;;24.60
53412;BMP280;39307;52.870;13.660;2023-06-10T10:58:06;101196.63;;;24.70
53412;BMP280;39307;52.870;13.660;2023-06-10T11:00:34;101191.16;;;25.06
53412;BMP280;39307;52.870;13.660;2023-06-10T11:05:48;101189.84;;;25.87
53412;BMP280;39307;52.870;13.660;2023-06-10T11:10:59;101177.56;;;26.64
53412;BMP280;39307;52.870;13.660;2023-06-10T11:13:26;101180.06;;;26.98
53412;BMP280;39307;52.870;13.660;2023-06-10T11:15:58;101173.06;;;27.40
53412;BMP280;39307;52.870;13.660;2023-06-10T11:18:29;101185.50;;;27.64
53412;BMP280;39307;52.870;13.660;2023-06-10T11:20:58;101177.00;;;27.80
53412;BMP280;39307;52.870;13.660;2023-06-10T11:26:08;101181.09;;;28.06
53412;BMP280;39307;52.870;13.660;2023-06-10T11:28:35;101166.63;;;28.02
53412;BMP280;39307;52.870;13.660;2023-06-10T11:31:02;101163.44;;;28.18
53412;BMP280;39307;52.870;13.660;2023-06-10T11:33:28;101162.03;;;28.48
53412;BMP280;39307;52.870;13.660;2023-06-10T11:35:56;101170.28;;;28.75
53412;BMP280;39307;52.870;13.660;2023-06-10T11:38:22;101161.00;;;29.04
53412;BMP280;39307;52.870;13.660;2023-06-10T11:40:48;101152.91;;;29.04
53412;BMP280;39307;52.870;13.660;2023-06-10T11:43:16;101150.69;;;29.24
53412;BMP280;39307;52.870;13.660;2023-06-10T11:45:43;101158.63;;;29.34
53412;BMP280;39307;52.870;13.660;2023-06-10T11:48:10;101143.78;;;29.50
53412;BMP280;39307;52.870;13.660;2023-06-10T11:50:36;101139.59;;;29.89
53412;BMP280;39307;52.870;13.660;2023-06-10T11:53:03;101141.31;;;30.11
53412;BMP280;39307;52.870;13.660;2023-06-10T11:55:46;101143.53;;;30.36
53412;BMP280;39307;52.870;13.660;2023-06-10T11:58:20;101148.91;;;30.49
53412;BMP280;39307;52.870;13.660;2023-06-10T12:00:51;101140.00;;;30.75
53412;BMP280;39307;52.870;13.660;2023-06-10T12:03:18;101136.69;;;31.00
53412;BMP280;39307;52.870;13.660;2023-06-10T12:06:04;101118.38;;;31.18
53412;BMP280;39307;52.870;13.660;2023-06-10T12:08:31;101124.75;;;31.36
53412;BMP280;39307;52.870;13.660;2023-06-10T12:10:57;101117.91;;;31.60
53412;BMP280;39307;52.870;13.660;2023-06-10T12:13:28;101116.25;;;31.80
53412;BMP280;39307;52.870;13.660;2023-06-10T12:15:55;101117.44;;;31.66
53412;BMP280;39307;52.870;13.660;2023-06-10T12:18:32;101122.44;;;31.29
53412;BMP280;39307;52.870;13.660;2023-06-10T12:20:58;101109.78;;;31.16
53412;BMP280;39307;52.870;13.660;2023-06-10T12:23:25;101117.09;;;31.16
53412;BMP280;39307;52.870;13.660;2023-06-10T12:25:55;101112.38;;;31.43
53412;BMP280;39307;52.870;13.660;2023-06-10T12:28:23;101109.41;;;31.53
53412;BMP280;39307;52.870;13.660;2023-06-10T12:30:49;101100.38;;;31.57
53412;BMP280;39307;52.870;13.660;2023-06-10T12:33:19;101100.97;;;31.76
53412;BMP280;39307;52.870;13.660;2023-06-10T12:35:52;101087.66;;;31.96
53412;BMP280;39307;52.870;13.660;2023-06-10T12:38:22;101081.69;;;31.77
53412;BMP280;39307;52.870;13.660;2023-06-10T12:40:49;101079.06;;;31.94
53412;BMP280;39307;52.870;13.660;2023-06-10T12:43:25;101071.31;;;32.18
53412;BMP280;39307;52.870;13.660;2023-06-10T12:45:51;101063.25;;;32.51
53412;BMP280;39307;52.870;13.660;2023-06-10T12:48:19;101069.94;;;32.70
53412;BMP280;39307;52.870;13.660;2023-06-10T12:50:50;101069.78;;;32.42
53412;BMP280;39307;52.870;13.660;2023-06-10T12:53:18;101078.44;;;31.97
53412;BMP280;39307;52.870;13.660;2023-06-10T12:55:45;101082.50;;;31.48
53412;BMP280;39307;52.870;13.660;2023-06-10T12:58:12;101082.56;;;31.35
53412;BMP280;39307;52.870;13.660;2023-06-10T13:00:38;101080.09;;;31.03
53412;BMP280;39307;52.870;13.660;2023-06-10T13:03:05;101083.53;;;30.74
53412;BMP280;39307;52.870;13.660;2023-06-10T13:05:32;101077.75;;;30.53
53412;BMP280;39307;52.870;13.660;2023-06-10T13:07:59;101081.09;;;30.37
53412;BMP280;39307;52.870;13.660;2023-06-10T13:10:25;101092.22;;;30.22
53412;BMP280;39307;52.870;13.660;2023-06-10T13:12:52;101093.03;;;29.96
53412;BMP280;39307;52.870;13.660;2023-06-10T13:15:18;101097.53;;;29.56
53412;BMP280;39307;52.870;13.660;2023-06-10T13:17:44;101105.00;;;29.32
53412;BMP280;39307;52.870;13.660;2023-06-10T13:20:11;101096.34;;;29.17
53412;BMP280;39307;52.870;13.660;2023-06-10T13:22:37;101095.13;;;28.92
53412;BMP280;39307;52.870;13.660;2023-06-10T13:25:04;101092.38;;;28.78
53412;BMP280;39307;52.870;13.660;2023-06-10T13:27:31;101097.19;;;28.63
53412;BMP280;39307;52.870;13.660;2023-06-10T13:29:57;101091.38;;;28.56
53412;BMP280;39307;52.870;13.660;2023-06-10T13:32:23;101082.81;;;28.49
53412;BMP280;39307;52.870;13.660;2023-06-10T13:34:49;101081.22;;;28.67
53412;BMP280;39307;52.870;13.660;2023-06-10T13:37:16;101072.91;;;29.00
53412;BMP280;39307;52.870;13.660;2023-06-10T13:39:42;101071.53;;;29.33
53412;BMP280;39307;52.870;13.660;2023-06-10T13:42:09;101075.09;;;29.61
53412;BMP280;39307;52.870;13.660;2023-06-10T13:44:35;101070.09;;;29.67
53412;BMP280;39307;52.870;13.660;2023-06-10T13:47:04;101066.03;;;29.96
53412;BMP280;39307;52.870;13.660;2023-06-10T13:49:31;101060.13;;;30.21
53412;BMP280;39307;52.870;13.660;2023-06-10T13:51:57;101058.81;;;30.05
53412;BMP280;39307;52.870;13.660;2023-06-10T13:54:25;101063.19;;;30.01
53412;BMP280;39307;52.870;13.660;2023-06-10T13:56:51;101046.94;;;29.93
53412;BMP280;39307;52.870;13.660;2023-06-10T13:59:19;101038.81;;;30.06
53412;BMP280;39307;52.870;13.660;2023-06-10T14:01:45;101043.41;;;30.19